Hlavní strana
METAR-TAF:

METAR-TAF

Letiště :

Letiště Drážďany

Drážďany, Německo

zeměpisná šířka: 51-08N, zeměpisná délka: 013-45E, výška: 230 m

Aktuální stav počasí

Zpráva byla vytvořena před 12 minutami, v 14:50 UTC
Jihojihovýchodní vítr 3 kt
Teplota 3°C
Vlhkost vzduchu 87%
Tlak 1024 hPa
Viditelnost 10 km a více
Žádná oblačnost pod 1500 m, nevyskytují se cumulonimby.

METAR: EDDC 181450Z 15003KT CAVOK 03/01 Q1024 NOSIG

Čas: 16:02 (15:02 UTC)

Předpověď počasí

Zpráva byla vytvořena před 4 hodinami a 2 minutami, v 11:00 UTC
Předpověď platná od 18 v 12 UTC do 19 v 12 UTC
Jihozápadní vítr 4 kt
Viditelnost 10 km a více
Žádná oblačnost pod 1500 m, nevyskytují se cumulonimby.
Změna
od 18 v 17 UTC do 18 v 20 UTC
Jihojihovýchodní vítr 10 kt
Změna
od 19 v 00 UTC do 19 v 02 UTC
Jihojihovýchodní vítr 15 kt s nárazy do 25 kt

TAF: EDDC 181100Z 1812/1912 23004KT CAVOK BECMG 1817/1820 15010KT BECMG 1900/1902 15015G25KT

Stav a předpovědi počasí z více než 4 000 letišť (zprávy METAR a TAF).

Červené a žluté tečky na mapě představují dostupné meteorologické stanice.

Když kurzor umístíte na tečku, zobrazí se název stanice.

Pak kliknutím zobrazíte stav a předpověď počasí.

Chcete-li změnit mapu, kliknutím na zelené tlačítko se znaménkem +mapu přiblížíte, kliknutím na zelené tlačítko se znaménkem – mapu oddálíte a kliknutím na zelené šipky přejdete na sousední mapy.


METAR-TAF: